sensor_id;sensor_type;location;lat;lon;timestamp;P1;durP1;ratioP1;P2;durP2;ratioP2
79369;SDS011;68835;53.096;17.932;2023-04-25T00:01:59;19.70;;;11.30;;
79369;SDS011;68835;53.096;17.932;2023-04-25T00:04:29;19.30;;;9.90;;
79369;SDS011;68835;53.096;17.932;2023-04-25T00:06:56;6.20;;;4.80;;
79369;SDS011;68835;53.096;17.932;2023-04-25T00:09:25;9.50;;;6.20;;
79369;SDS011;68835;53.096;17.932;2023-04-25T00:11:52;11.60;;;6.00;;
79369;SDS011;68835;53.096;17.932;2023-04-25T00:14:19;6.50;;;4.80;;
79369;SDS011;68835;53.096;17.932;2023-04-25T00:16:46;6.30;;;4.00;;
79369;SDS011;68835;53.096;17.932;2023-04-25T00:19:15;4.60;;;3.60;;
79369;SDS011;68835;53.096;17.932;2023-04-25T00:21:42;4.00;;;2.80;;
79369;SDS011;68835;53.096;17.932;2023-04-25T00:24:09;5.50;;;4.30;;
79369;SDS011;68835;53.096;17.932;2023-04-25T00:26:36;9.60;;;4.60;;
79369;SDS011;68835;53.096;17.932;2023-04-25T00:29:03;5.50;;;4.10;;
79369;SDS011;68835;53.096;17.932;2023-04-25T00:31:31;4.80;;;4.00;;
79369;SDS011;68835;53.096;17.932;2023-04-25T00:33:58;7.50;;;4.40;;
79369;SDS011;68835;53.096;17.932;2023-04-25T00:36:25;5.40;;;4.00;;
79369;SDS011;68835;53.096;17.932;2023-04-25T00:38:54;5.50;;;3.80;;
79369;SDS011;68835;53.096;17.932;2023-04-25T00:43:49;6.80;;;3.30;;
79369;SDS011;68835;53.096;17.932;2023-04-25T00:46:17;5.60;;;4.30;;
79369;SDS011;68835;53.096;17.932;2023-04-25T00:48:45;6.00;;;4.10;;
79369;SDS011;68835;53.096;17.932;2023-04-25T00:51:30;7.70;;;4.20;;
79369;SDS011;68835;53.096;17.932;2023-04-25T00:53:59;5.90;;;4.40;;
79369;SDS011;68835;53.096;17.932;2023-04-25T00:56:28;6.70;;;4.30;;
79369;SDS011;68835;53.096;17.932;2023-04-25T00:58:55;8.00;;;4.50;;
79369;SDS011;68835;53.096;17.932;2023-04-25T01:01:24;4.70;;;3.80;;
79369;SDS011;68835;53.096;17.932;2023-04-25T01:03:51;4.90;;;3.90;;
79369;SDS011;68835;53.096;17.932;2023-04-25T01:06:20;6.00;;;4.20;;
79369;SDS011;68835;53.096;17.932;2023-04-25T01:08:49;5.40;;;4.00;;
79369;SDS011;68835;53.096;17.932;2023-04-25T01:11:16;3.90;;;3.30;;
79369;SDS011;68835;53.096;17.932;2023-04-25T01:13:43;2.90;;;2.50;;
79369;SDS011;68835;53.096;17.932;2023-04-25T01:16:10;5.20;;;3.80;;
79369;SDS011;68835;53.096;17.932;2023-04-25T01:18:38;4.60;;;3.60;;
79369;SDS011;68835;53.096;17.932;2023-04-25T01:21:10;4.30;;;3.50;;
79369;SDS011;68835;53.096;17.932;2023-04-25T01:23:40;4.80;;;3.20;;
79369;SDS011;68835;53.096;17.932;2023-04-25T01:26:08;4.00;;;3.20;;
79369;SDS011;68835;53.096;17.932;2023-04-25T01:28:37;4.30;;;3.40;;
79369;SDS011;68835;53.096;17.932;2023-04-25T01:31:09;4.00;;;3.10;;
79369;SDS011;68835;53.096;17.932;2023-04-25T01:33:38;4.60;;;3.10;;
79369;SDS011;68835;53.096;17.932;2023-04-25T01:36:06;4.90;;;3.70;;
79369;SDS011;68835;53.096;17.932;2023-04-25T01:38:35;6.60;;;3.50;;
79369;SDS011;68835;53.096;17.932;2023-04-25T01:41:02;5.60;;;3.40;;
79369;SDS011;68835;53.096;17.932;2023-04-25T01:43:29;7.00;;;3.70;;
79369;SDS011;68835;53.096;17.932;2023-04-25T01:45:56;4.40;;;3.30;;
79369;SDS011;68835;53.096;17.932;2023-04-25T01:48:24;5.30;;;3.40;;
79369;SDS011;68835;53.096;17.932;2023-04-25T01:50:51;4.40;;;3.40;;
79369;SDS011;68835;53.096;17.932;2023-04-25T01:53:19;4.60;;;3.40;;
79369;SDS011;68835;53.096;17.932;2023-04-25T01:55:46;5.90;;;3.90;;
79369;SDS011;68835;53.096;17.932;2023-04-25T01:58:16;4.70;;;3.50;;
79369;SDS011;68835;53.096;17.932;2023-04-25T02:01:06;6.20;;;4.40;;
79369;SDS011;68835;53.096;17.932;2023-04-25T02:03:38;3.60;;;3.00;;
79369;SDS011;68835;53.096;17.932;2023-04-25T02:06:09;4.60;;;3.50;;
79369;SDS011;68835;53.096;17.932;2023-04-25T02:08:39;5.30;;;3.50;;
79369;SDS011;68835;53.096;17.932;2023-04-25T02:11:06;4.90;;;3.00;;
79369;SDS011;68835;53.096;17.932;2023-04-25T02:13:41;4.10;;;2.80;;
79369;SDS011;68835;53.096;17.932;2023-04-25T02:16:30;3.90;;;2.70;;
79369;SDS011;68835;53.096;17.932;2023-04-25T02:18:57;4.30;;;2.70;;
79369;SDS011;68835;53.096;17.932;2023-04-25T02:21:28;4.00;;;3.20;;
79369;SDS011;68835;53.096;17.932;2023-04-25T02:23:56;3.60;;;2.80;;
79369;SDS011;68835;53.096;17.932;2023-04-25T02:28:51;3.90;;;3.10;;
79369;SDS011;68835;53.096;17.932;2023-04-25T02:31:19;2.70;;;2.10;;
79369;SDS011;68835;53.096;17.932;2023-04-25T02:33:47;5.40;;;3.00;;
79369;SDS011;68835;53.096;17.932;2023-04-25T02:36:14;4.50;;;3.00;;
79369;SDS011;68835;53.096;17.932;2023-04-25T02:38:41;3.10;;;2.50;;
79369;SDS011;68835;53.096;17.932;2023-04-25T02:41:09;3.10;;;1.90;;
79369;SDS011;68835;53.096;17.932;2023-04-25T02:43:36;3.10;;;2.50;;
79369;SDS011;68835;53.096;17.932;2023-04-25T02:46:03;4.00;;;2.60;;
79369;SDS011;68835;53.096;17.932;2023-04-25T02:48:30;1.40;;;1.30;;
79369;SDS011;68835;53.096;17.932;2023-04-25T02:50:57;3.80;;;2.80;;
79369;SDS011;68835;53.096;17.932;2023-04-25T02:53:25;3.60;;;2.90;;
79369;SDS011;68835;53.096;17.932;2023-04-25T02:55:52;2.50;;;2.30;;
79369;SDS011;68835;53.096;17.932;2023-04-25T02:58:19;3.00;;;2.20;;
79369;SDS011;68835;53.096;17.932;2023-04-25T03:00:49;3.70;;;2.80;;
79369;SDS011;68835;53.096;17.932;2023-04-25T03:03:16;2.70;;;1.50;;
79369;SDS011;68835;53.096;17.932;2023-04-25T03:05:44;1.90;;;1.50;;
79369;SDS011;68835;53.096;17.932;2023-04-25T03:08:14;2.00;;;1.80;;
79369;SDS011;68835;53.096;17.932;2023-04-25T03:10:44;5.40;;;2.70;;
79369;SDS011;68835;53.096;17.932;2023-04-25T03:13:13;2.00;;;1.70;;
79369;SDS011;68835;53.096;17.932;2023-04-25T03:15:41;2.50;;;1.90;;
79369;SDS011;68835;53.096;17.932;2023-04-25T03:18:08;1.90;;;1.40;;
79369;SDS011;68835;53.096;17.932;2023-04-25T03:20:36;3.40;;;2.50;;
79369;SDS011;68835;53.096;17.932;2023-04-25T03:23:03;3.40;;;2.20;;
79369;SDS011;68835;53.096;17.932;2023-04-25T03:25:31;5.50;;;2.70;;
79369;SDS011;68835;53.096;17.932;2023-04-25T03:27:58;3.20;;;2.30;;
79369;SDS011;68835;53.096;17.932;2023-04-25T03:30:26;2.60;;;2.10;;
79369;SDS011;68835;53.096;17.932;2023-04-25T03:32:53;3.30;;;2.40;;
79369;SDS011;68835;53.096;17.932;2023-04-25T03:35:21;3.30;;;2.60;;
79369;SDS011;68835;53.096;17.932;2023-04-25T03:37:52;4.50;;;2.40;;
79369;SDS011;68835;53.096;17.932;2023-04-25T03:40:23;10.50;;;2.20;;
79369;SDS011;68835;53.096;17.932;2023-04-25T03:43:08;3.50;;;2.70;;
79369;SDS011;68835;53.096;17.932;2023-04-25T03:45:36;3.50;;;2.70;;
79369;SDS011;68835;53.096;17.932;2023-04-25T03:48:03;1.80;;;1.40;;
79369;SDS011;68835;53.096;17.932;2023-04-25T03:50:31;4.70;;;2.90;;
79369;SDS011;68835;53.096;17.932;2023-04-25T03:52:59;2.50;;;2.10;;
79369;SDS011;68835;53.096;17.932;2023-04-25T03:55:28;2.90;;;2.30;;
79369;SDS011;68835;53.096;17.932;2023-04-25T03:57:55;3.50;;;2.60;;
79369;SDS011;68835;53.096;17.932;2023-04-25T04:00:25;3.60;;;2.50;;
79369;SDS011;68835;53.096;17.932;2023-04-25T04:02:52;3.00;;;1.90;;
79369;SDS011;68835;53.096;17.932;2023-04-25T04:05:19;5.30;;;2.70;;
79369;SDS011;68835;53.096;17.932;2023-04-25T04:07:52;2.80;;;2.00;;
79369;SDS011;68835;53.096;17.932;2023-04-25T04:10:20;2.60;;;1.70;;
79369;SDS011;68835;53.096;17.932;2023-04-25T04:12:47;5.00;;;2.80;;
79369;SDS011;68835;53.096;17.932;2023-04-25T04:15:14;5.10;;;3.00;;
79369;SDS011;68835;53.096;17.932;2023-04-25T04:17:44;3.20;;;1.90;;
79369;SDS011;68835;53.096;17.932;2023-04-25T04:20:12;4.20;;;2.60;;
79369;SDS011;68835;53.096;17.932;2023-04-25T04:22:40;2.70;;;2.00;;
79369;SDS011;68835;53.096;17.932;2023-04-25T04:25:11;3.30;;;2.50;;
79369;SDS011;68835;53.096;17.932;2023-04-25T04:28:11;4.90;;;3.50;;
79369;SDS011;68835;53.096;17.932;2023-04-25T04:30:48;3.50;;;2.60;;
79369;SDS011;68835;53.096;17.932;2023-04-25T04:33:18;3.40;;;2.20;;
79369;SDS011;68835;53.096;17.932;2023-04-25T04:35:46;3.40;;;2.40;;
79369;SDS011;68835;53.096;17.932;2023-04-25T04:40:45;2.80;;;1.80;;
79369;SDS011;68835;53.096;17.932;2023-04-25T04:43:40;2.80;;;2.00;;
79369;SDS011;68835;53.096;17.932;2023-04-25T04:46:23;2.90;;;1.60;;
79369;SDS011;68835;53.096;17.932;2023-04-25T04:49:10;3.50;;;2.50;;
79369;SDS011;68835;53.096;17.932;2023-04-25T04:52:01;4.00;;;1.90;;
79369;SDS011;68835;53.096;17.932;2023-04-25T04:54:48;2.70;;;2.20;;
79369;SDS011;68835;53.096;17.932;2023-04-25T04:57:23;3.10;;;1.80;;
79369;SDS011;68835;53.096;17.932;2023-04-25T04:59:57;2.60;;;2.00;;
79369;SDS011;68835;53.096;17.932;2023-04-25T05:02:43;3.90;;;2.40;;
79369;SDS011;68835;53.096;17.932;2023-04-25T05:05:30;1.30;;;1.20;;
79369;SDS011;68835;53.096;17.932;2023-04-25T05:08:36;3.60;;;2.10;;
79369;SDS011;68835;53.096;17.932;2023-04-25T05:14:14;2.60;;;1.60;;
79369;SDS011;68835;53.096;17.932;2023-04-25T05:16:42;3.70;;;2.50;;
79369;SDS011;68835;53.096;17.932;2023-04-25T05:19:30;3.40;;;1.70;;
79369;SDS011;68835;53.096;17.932;2023-04-25T05:22:22;2.80;;;1.50;;
79369;SDS011;68835;53.096;17.932;2023-04-25T05:25:07;2.20;;;1.80;;
79369;SDS011;68835;53.096;17.932;2023-04-25T05:27:59;3.10;;;2.00;;
79369;SDS011;68835;53.096;17.932;2023-04-25T05:30:42;2.40;;;1.90;;
79369;SDS011;68835;53.096;17.932;2023-04-25T05:33:21;3.80;;;2.10;;
79369;SDS011;68835;53.096;17.932;2023-04-25T05:35:50;2.30;;;2.00;;
79369;SDS011;68835;53.096;17.932;2023-04-25T05:38:18;2.70;;;2.10;;
79369;SDS011;68835;53.096;17.932;2023-04-25T05:41:04;1.90;;;1.40;;
79369;SDS011;68835;53.096;17.932;2023-04-25T05:43:41;3.30;;;2.20;;
79369;SDS011;68835;53.096;17.932;2023-04-25T05:46:40;3.30;;;2.20;;
79369;SDS011;68835;53.096;17.932;2023-04-25T05:49:15;3.40;;;2.50;;
79369;SDS011;68835;53.096;17.932;2023-04-25T05:52:01;3.40;;;1.90;;
79369;SDS011;68835;53.096;17.932;2023-04-25T05:54:48;2.70;;;2.20;;
79369;SDS011;68835;53.096;17.932;2023-04-25T05:57:25;5.80;;;2.40;;
79369;SDS011;68835;53.096;17.932;2023-04-25T05:59:54;3.00;;;2.10;;
79369;SDS011;68835;53.096;17.932;2023-04-25T06:02:25;3.10;;;2.10;;
79369;SDS011;68835;53.096;17.932;2023-04-25T06:04:53;3.50;;;2.40;;
79369;SDS011;68835;53.096;17.932;2023-04-25T06:07:25;2.90;;;2.10;;
79369;SDS011;68835;53.096;17.932;2023-04-25T06:09:53;2.30;;;1.70;;
79369;SDS011;68835;53.096;17.932;2023-04-25T06:12:20;3.40;;;2.10;;
79369;SDS011;68835;53.096;17.932;2023-04-25T06:14:48;3.50;;;2.70;;
79369;SDS011;68835;53.096;17.932;2023-04-25T06:17:16;3.60;;;2.70;;
79369;SDS011;68835;53.096;17.932;2023-04-25T06:19:43;8.10;;;2.40;;
79369;SDS011;68835;53.096;17.932;2023-04-25T06:22:10;4.80;;;2.70;;
79369;SDS011;68835;53.096;17.932;2023-04-25T06:24:39;6.40;;;2.90;;
79369;SDS011;68835;53.096;17.932;2023-04-25T06:29:34;3.10;;;2.40;;
79369;SDS011;68835;53.096;17.932;2023-04-25T06:32:02;5.00;;;2.60;;
79369;SDS011;68835;53.096;17.932;2023-04-25T06:34:30;4.90;;;2.60;;
79369;SDS011;68835;53.096;17.932;2023-04-25T06:36:57;4.10;;;2.50;;
79369;SDS011;68835;53.096;17.932;2023-04-25T06:39:24;3.90;;;2.00;;
79369;SDS011;68835;53.096;17.932;2023-04-25T06:41:52;3.80;;;2.50;;
79369;SDS011;68835;53.096;17.932;2023-04-25T06:44:46;1.90;;;1.70;;
79369;SDS011;68835;53.096;17.932;2023-04-25T06:47:14;3.00;;;2.20;;
79369;SDS011;68835;53.096;17.932;2023-04-25T06:49:42;1.60;;;1.40;;
79369;SDS011;68835;53.096;17.932;2023-04-25T06:52:10;1.90;;;1.70;;
79369;SDS011;68835;53.096;17.932;2023-04-25T06:54:37;4.10;;;2.40;;
79369;SDS011;68835;53.096;17.932;2023-04-25T06:57:15;6.20;;;2.60;;
79369;SDS011;68835;53.096;17.932;2023-04-25T06:59:49;4.50;;;2.60;;
79369;SDS011;68835;53.096;17.932;2023-04-25T07:02:19;4.30;;;2.30;;
79369;SDS011;68835;53.096;17.932;2023-04-25T07:04:49;3.50;;;2.20;;
79369;SDS011;68835;53.096;17.932;2023-04-25T07:07:16;3.10;;;1.80;;
79369;SDS011;68835;53.096;17.932;2023-04-25T07:09:52;2.50;;;1.90;;
79369;SDS011;68835;53.096;17.932;2023-04-25T07:12:19;4.50;;;2.40;;
79369;SDS011;68835;53.096;17.932;2023-04-25T07:14:46;3.40;;;1.80;;
79369;SDS011;68835;53.096;17.932;2023-04-25T07:17:14;1.70;;;1.30;;
79369;SDS011;68835;53.096;17.932;2023-04-25T07:19:42;3.40;;;2.10;;
79369;SDS011;68835;53.096;17.932;2023-04-25T07:22:10;3.70;;;2.10;;
79369;SDS011;68835;53.096;17.932;2023-04-25T07:24:40;3.90;;;2.20;;
79369;SDS011;68835;53.096;17.932;2023-04-25T07:27:11;2.30;;;1.70;;
79369;SDS011;68835;53.096;17.932;2023-04-25T07:29:56;3.60;;;2.10;;
79369;SDS011;68835;53.096;17.932;2023-04-25T07:32:24;2.20;;;1.70;;
79369;SDS011;68835;53.096;17.932;2023-04-25T07:34:52;3.20;;;1.70;;
79369;SDS011;68835;53.096;17.932;2023-04-25T07:37:19;4.00;;;2.30;;
79369;SDS011;68835;53.096;17.932;2023-04-25T07:40:01;3.00;;;2.00;;
79369;SDS011;68835;53.096;17.932;2023-04-25T07:42:31;3.40;;;2.30;;
79369;SDS011;68835;53.096;17.932;2023-04-25T07:44:59;4.30;;;2.30;;
79369;SDS011;68835;53.096;17.932;2023-04-25T07:47:28;3.10;;;2.20;;
79369;SDS011;68835;53.096;17.932;2023-04-25T07:49:55;2.40;;;1.60;;
79369;SDS011;68835;53.096;17.932;2023-04-25T07:52:24;7.60;;;2.60;;
79369;SDS011;68835;53.096;17.932;2023-04-25T07:54:58;5.40;;;2.40;;
79369;SDS011;68835;53.096;17.932;2023-04-25T07:57:32;2.90;;;2.10;;
79369;SDS011;68835;53.096;17.932;2023-04-25T07:59:59;4.70;;;2.30;;
79369;SDS011;68835;53.096;17.932;2023-04-25T08:02:27;2.40;;;2.10;;
79369;SDS011;68835;53.096;17.932;2023-04-25T08:04:55;4.50;;;2.80;;
79369;SDS011;68835;53.096;17.932;2023-04-25T08:09:52;4.10;;;2.80;;
79369;SDS011;68835;53.096;17.932;2023-04-25T08:12:27;3.90;;;2.50;;
79369;SDS011;68835;53.096;17.932;2023-04-25T08:14:56;3.10;;;2.60;;
79369;SDS011;68835;53.096;17.932;2023-04-25T08:17:24;3.60;;;2.50;;
79369;SDS011;68835;53.096;17.932;2023-04-25T08:19:52;5.30;;;2.60;;
79369;SDS011;68835;53.096;17.932;2023-04-25T08:22:29;4.30;;;3.00;;
79369;SDS011;68835;53.096;17.932;2023-04-25T08:25:15;4.60;;;2.60;;
79369;SDS011;68835;53.096;17.932;2023-04-25T08:30:12;5.50;;;3.00;;
79369;SDS011;68835;53.096;17.932;2023-04-25T08:32:40;3.00;;;2.20;;
79369;SDS011;68835;53.096;17.932;2023-04-25T08:35:26;3.70;;;2.80;;
79369;SDS011;68835;53.096;17.932;2023-04-25T08:37:53;3.80;;;2.90;;
79369;SDS011;68835;53.096;17.932;2023-04-25T08:40:22;3.90;;;2.60;;
79369;SDS011;68835;53.096;17.932;2023-04-25T08:43:24;4.40;;;2.80;;
79369;SDS011;68835;53.096;17.932;2023-04-25T08:48:32;3.40;;;2.60;;
79369;SDS011;68835;53.096;17.932;2023-04-25T08:51:02;5.20;;;3.10;;
79369;SDS011;68835;53.096;17.932;2023-04-25T08:53:32;10.50;;;4.90;;
79369;SDS011;68835;53.096;17.932;2023-04-25T08:56:04;4.90;;;2.80;;
79369;SDS011;68835;53.096;17.932;2023-04-25T08:58:37;5.40;;;2.70;;
79369;SDS011;68835;53.096;17.932;2023-04-25T09:01:05;6.00;;;3.50;;
79369;SDS011;68835;53.096;17.932;2023-04-25T09:03:40;4.60;;;3.40;;
79369;SDS011;68835;53.096;17.932;2023-04-25T09:06:10;4.90;;;3.00;;
79369;SDS011;68835;53.096;17.932;2023-04-25T09:08:38;6.70;;;2.80;;
79369;SDS011;68835;53.096;17.932;2023-04-25T09:11:07;3.20;;;2.30;;
79369;SDS011;68835;53.096;17.932;2023-04-25T09:13:34;2.50;;;1.90;;
79369;SDS011;68835;53.096;17.932;2023-04-25T09:16:24;3.40;;;2.80;;
79369;SDS011;68835;53.096;17.932;2023-04-25T09:19:24;3.50;;;2.70;;
79369;SDS011;68835;53.096;17.932;2023-04-25T09:21:55;3.00;;;2.60;;
79369;SDS011;68835;53.096;17.932;2023-04-25T09:24:30;5.60;;;3.00;;
79369;SDS011;68835;53.096;17.932;2023-04-25T09:27:06;4.60;;;2.10;;
79369;SDS011;68835;53.096;17.932;2023-04-25T09:29:36;4.40;;;2.10;;
79369;SDS011;68835;53.096;17.932;2023-04-25T09:34:41;3.00;;;2.60;;
79369;SDS011;68835;53.096;17.932;2023-04-25T09:37:16;6.30;;;3.50;;
79369;SDS011;68835;53.096;17.932;2023-04-25T09:40:21;4.00;;;3.00;;
79369;SDS011;68835;53.096;17.932;2023-04-25T09:43:08;4.10;;;2.90;;
79369;SDS011;68835;53.096;17.932;2023-04-25T09:45:42;6.00;;;3.20;;
79369;SDS011;68835;53.096;17.932;2023-04-25T09:48:21;3.00;;;2.50;;
79369;SDS011;68835;53.096;17.932;2023-04-25T09:51:05;4.70;;;3.40;;
79369;SDS011;68835;53.096;17.932;2023-04-25T09:53:37;5.10;;;2.90;;
79369;SDS011;68835;53.096;17.932;2023-04-25T09:56:15;3.20;;;2.90;;
79369;SDS011;68835;53.096;17.932;2023-04-25T09:58:43;4.10;;;2.30;;
79369;SDS011;68835;53.096;17.932;2023-04-25T10:01:10;4.30;;;3.20;;
79369;SDS011;68835;53.096;17.932;2023-04-25T10:03:44;5.10;;;3.00;;
79369;SDS011;68835;53.096;17.932;2023-04-25T10:06:33;3.30;;;2.20;;
79369;SDS011;68835;53.096;17.932;2023-04-25T10:09:02;3.00;;;2.70;;
79369;SDS011;68835;53.096;17.932;2023-04-25T10:11:30;4.40;;;3.30;;
79369;SDS011;68835;53.096;17.932;2023-04-25T10:13:59;5.40;;;3.00;;
79369;SDS011;68835;53.096;17.932;2023-04-25T10:16:27;3.80;;;2.70;;
79369;SDS011;68835;53.096;17.932;2023-04-25T10:18:55;4.10;;;2.70;;
79369;SDS011;68835;53.096;17.932;2023-04-25T10:21:23;3.60;;;2.90;;
79369;SDS011;68835;53.096;17.932;2023-04-25T10:23:53;4.00;;;2.70;;
79369;SDS011;68835;53.096;17.932;2023-04-25T10:26:21;4.00;;;2.40;;
79369;SDS011;68835;53.096;17.932;2023-04-25T10:28:58;2.90;;;2.60;;
79369;SDS011;68835;53.096;17.932;2023-04-25T10:31:30;4.00;;;2.80;;
79369;SDS011;68835;53.096;17.932;2023-04-25T10:33:59;4.50;;;2.90;;
79369;SDS011;68835;53.096;17.932;2023-04-25T10:36:27;3.60;;;2.90;;
79369;SDS011;68835;53.096;17.932;2023-04-25T10:39:03;4.40;;;2.60;;
79369;SDS011;68835;53.096;17.932;2023-04-25T10:41:57;2.60;;;2.00;;
79369;SDS011;68835;53.096;17.932;2023-04-25T10:44:29;4.00;;;2.20;;
79369;SDS011;68835;53.096;17.932;2023-04-25T10:46:58;3.50;;;2.40;;
79369;SDS011;68835;53.096;17.932;2023-04-25T10:49:37;4.80;;;2.20;;
79369;SDS011;68835;53.096;17.932;2023-04-25T10:52:11;5.40;;;2.50;;
79369;SDS011;68835;53.096;17.932;2023-04-25T10:54:48;3.90;;;2.80;;
79369;SDS011;68835;53.096;17.932;2023-04-25T10:57:45;3.50;;;2.90;;
79369;SDS011;68835;53.096;17.932;2023-04-25T11:00:17;3.90;;;2.70;;
79369;SDS011;68835;53.096;17.932;2023-04-25T11:02:48;4.00;;;3.00;;
79369;SDS011;68835;53.096;17.932;2023-04-25T11:05:32;2.70;;;2.30;;
79369;SDS011;68835;53.096;17.932;2023-04-25T11:10:28;3.70;;;2.30;;
79369;SDS011;68835;53.096;17.932;2023-04-25T11:12:57;3.10;;;2.30;;
79369;SDS011;68835;53.096;17.932;2023-04-25T11:15:26;3.70;;;2.50;;
79369;SDS011;68835;53.096;17.932;2023-04-25T11:17:54;3.80;;;2.20;;
79369;SDS011;68835;53.096;17.932;2023-04-25T11:20:22;3.60;;;2.20;;
79369;SDS011;68835;53.096;17.932;2023-04-25T11:22:54;3.10;;;2.70;;
79369;SDS011;68835;53.096;17.932;2023-04-25T11:25:26;3.00;;;2.20;;
79369;SDS011;68835;53.096;17.932;2023-04-25T11:27:54;3.00;;;2.00;;
79369;SDS011;68835;53.096;17.932;2023-04-25T11:30:25;4.10;;;2.60;;
79369;SDS011;68835;53.096;17.932;2023-04-25T11:32:57;3.50;;;2.60;;
79369;SDS011;68835;53.096;17.932;2023-04-25T11:35:24;3.80;;;2.40;;
79369;SDS011;68835;53.096;17.932;2023-04-25T11:40:19;4.00;;;2.10;;
79369;SDS011;68835;53.096;17.932;2023-04-25T11:42:46;3.40;;;2.40;;
79369;SDS011;68835;53.096;17.932;2023-04-25T11:45:14;5.60;;;2.80;;
79369;SDS011;68835;53.096;17.932;2023-04-25T11:50:08;2.60;;;2.00;;
79369;SDS011;68835;53.096;17.932;2023-04-25T11:52:40;5.90;;;2.30;;
79369;SDS011;68835;53.096;17.932;2023-04-25T11:55:08;4.50;;;2.90;;
79369;SDS011;68835;53.096;17.932;2023-04-25T11:57:39;4.70;;;2.60;;
79369;SDS011;68835;53.096;17.932;2023-04-25T12:00:08;4.00;;;2.90;;
79369;SDS011;68835;53.096;17.932;2023-04-25T12:02:41;3.90;;;2.70;;
79369;SDS011;68835;53.096;17.932;2023-04-25T12:05:10;5.30;;;3.30;;
79369;SDS011;68835;53.096;17.932;2023-04-25T12:07:38;5.20;;;3.10;;
79369;SDS011;68835;53.096;17.932;2023-04-25T12:10:06;3.50;;;2.40;;
79369;SDS011;68835;53.096;17.932;2023-04-25T12:12:35;2.40;;;1.90;;
79369;SDS011;68835;53.096;17.932;2023-04-25T12:15:10;3.60;;;2.50;;
79369;SDS011;68835;53.096;17.932;2023-04-25T12:17:48;3.30;;;2.10;;
79369;SDS011;68835;53.096;17.932;2023-04-25T12:20:17;4.40;;;2.00;;
79369;SDS011;68835;53.096;17.932;2023-04-25T12:22:47;4.50;;;2.60;;
79369;SDS011;68835;53.096;17.932;2023-04-25T12:33:29;2.50;;;1.90;;
79369;SDS011;68835;53.096;17.932;2023-04-25T12:35:57;3.30;;;2.10;;
79369;SDS011;68835;53.096;17.932;2023-04-25T12:38:26;4.30;;;2.90;;
79369;SDS011;68835;53.096;17.932;2023-04-25T12:40:58;3.70;;;2.50;;
79369;SDS011;68835;53.096;17.932;2023-04-25T12:43:26;3.20;;;2.40;;
79369;SDS011;68835;53.096;17.932;2023-04-25T12:45:53;5.10;;;3.20;;
79369;SDS011;68835;53.096;17.932;2023-04-25T12:48:21;6.10;;;2.80;;
79369;SDS011;68835;53.096;17.932;2023-04-25T12:50:50;7.60;;;3.20;;
79369;SDS011;68835;53.096;17.932;2023-04-25T12:53:19;4.20;;;2.40;;
79369;SDS011;68835;53.096;17.932;2023-04-25T12:55:47;3.30;;;2.30;;
79369;SDS011;68835;53.096;17.932;2023-04-25T12:58:15;6.60;;;3.00;;
79369;SDS011;68835;53.096;17.932;2023-04-25T13:00:44;5.40;;;2.70;;
79369;SDS011;68835;53.096;17.932;2023-04-25T13:03:12;7.50;;;3.00;;
79369;SDS011;68835;53.096;17.932;2023-04-25T13:05:39;3.60;;;2.30;;
79369;SDS011;68835;53.096;17.932;2023-04-25T13:08:07;3.50;;;2.50;;
79369;SDS011;68835;53.096;17.932;2023-04-25T13:10:36;5.20;;;2.70;;
79369;SDS011;68835;53.096;17.932;2023-04-25T13:13:05;4.00;;;2.60;;
79369;SDS011;68835;53.096;17.932;2023-04-25T13:15:32;3.10;;;2.10;;
79369;SDS011;68835;53.096;17.932;2023-04-25T13:18:00;3.30;;;2.50;;
79369;SDS011;68835;53.096;17.932;2023-04-25T13:20:29;3.40;;;2.50;;
79369;SDS011;68835;53.096;17.932;2023-04-25T13:25:24;6.50;;;2.70;;
79369;SDS011;68835;53.096;17.932;2023-04-25T13:27:51;3.90;;;2.50;;
79369;SDS011;68835;53.096;17.932;2023-04-25T13:30:18;4.00;;;2.20;;
79369;SDS011;68835;53.096;17.932;2023-04-25T13:32:49;2.80;;;2.00;;
79369;SDS011;68835;53.096;17.932;2023-04-25T13:35:16;5.10;;;2.60;;
79369;SDS011;68835;53.096;17.932;2023-04-25T13:37:43;4.10;;;2.20;;
79369;SDS011;68835;53.096;17.932;2023-04-25T13:40:10;4.70;;;2.90;;
79369;SDS011;68835;53.096;17.932;2023-04-25T13:42:38;4.40;;;2.20;;
79369;SDS011;68835;53.096;17.932;2023-04-25T13:45:06;3.90;;;2.60;;
79369;SDS011;68835;53.096;17.932;2023-04-25T13:47:34;3.60;;;2.30;;
79369;SDS011;68835;53.096;17.932;2023-04-25T13:50:02;5.40;;;2.80;;
79369;SDS011;68835;53.096;17.932;2023-04-25T13:52:30;3.60;;;2.20;;
79369;SDS011;68835;53.096;17.932;2023-04-25T13:54:58;2.50;;;1.80;;
79369;SDS011;68835;53.096;17.932;2023-04-25T13:57:27;5.50;;;2.30;;
79369;SDS011;68835;53.096;17.932;2023-04-25T14:00:00;2.50;;;2.00;;
79369;SDS011;68835;53.096;17.932;2023-04-25T14:02:39;4.70;;;2.80;;
79369;SDS011;68835;53.096;17.932;2023-04-25T14:05:07;5.20;;;2.20;;
79369;SDS011;68835;53.096;17.932;2023-04-25T14:07:34;2.80;;;2.20;;
79369;SDS011;68835;53.096;17.932;2023-04-25T14:10:03;4.00;;;2.80;;
79369;SDS011;68835;53.096;17.932;2023-04-25T14:12:32;3.30;;;2.90;;
79369;SDS011;68835;53.096;17.932;2023-04-25T14:14:59;4.80;;;3.10;;
79369;SDS011;68835;53.096;17.932;2023-04-25T14:17:26;3.40;;;2.00;;
79369;SDS011;68835;53.096;17.932;2023-04-25T14:19:54;3.20;;;2.30;;
79369;SDS011;68835;53.096;17.932;2023-04-25T14:24:49;9.90;;;7.10;;
79369;SDS011;68835;53.096;17.932;2023-04-25T14:27:16;8.90;;;5.50;;
79369;SDS011;68835;53.096;17.932;2023-04-25T14:29:44;3.90;;;3.50;;
79369;SDS011;68835;53.096;17.932;2023-04-25T14:32:11;3.10;;;2.50;;
79369;SDS011;68835;53.096;17.932;2023-04-25T14:34:39;5.20;;;3.00;;
79369;SDS011;68835;53.096;17.932;2023-04-25T14:37:07;3.80;;;2.80;;
79369;SDS011;68835;53.096;17.932;2023-04-25T14:39:34;3.10;;;2.60;;
79369;SDS011;68835;53.096;17.932;2023-04-25T14:42:01;2.40;;;2.00;;
79369;SDS011;68835;53.096;17.932;2023-04-25T14:44:30;3.00;;;2.00;;
79369;SDS011;68835;53.096;17.932;2023-04-25T14:46:57;4.20;;;2.30;;
79369;SDS011;68835;53.096;17.932;2023-04-25T14:49:25;4.00;;;2.30;;
79369;SDS011;68835;53.096;17.932;2023-04-25T14:51:52;5.60;;;2.70;;
79369;SDS011;68835;53.096;17.932;2023-04-25T14:54:19;3.60;;;2.40;;
79369;SDS011;68835;53.096;17.932;2023-04-25T14:56:47;5.40;;;3.20;;
79369;SDS011;68835;53.096;17.932;2023-04-25T14:59:14;5.70;;;3.10;;
79369;SDS011;68835;53.096;17.932;2023-04-25T15:04:10;3.70;;;1.80;;
79369;SDS011;68835;53.096;17.932;2023-04-25T15:06:39;5.70;;;2.90;;
79369;SDS011;68835;53.096;17.932;2023-04-25T15:09:09;2.60;;;2.00;;
79369;SDS011;68835;53.096;17.932;2023-04-25T15:11:37;4.60;;;3.20;;
79369;SDS011;68835;53.096;17.932;2023-04-25T15:14:06;3.70;;;2.00;;
79369;SDS011;68835;53.096;17.932;2023-04-25T15:16:33;5.00;;;3.30;;
79369;SDS011;68835;53.096;17.932;2023-04-25T15:19:01;4.30;;;2.60;;
79369;SDS011;68835;53.096;17.932;2023-04-25T15:21:32;3.60;;;2.30;;
79369;SDS011;68835;53.096;17.932;2023-04-25T15:24:00;3.70;;;2.60;;
79369;SDS011;68835;53.096;17.932;2023-04-25T15:26:28;3.80;;;2.60;;
79369;SDS011;68835;53.096;17.932;2023-04-25T15:28:56;4.80;;;3.00;;
79369;SDS011;68835;53.096;17.932;2023-04-25T15:31:25;7.20;;;4.50;;
79369;SDS011;68835;53.096;17.932;2023-04-25T15:33:52;12.10;;;8.00;;
79369;SDS011;68835;53.096;17.932;2023-04-25T15:36:20;6.30;;;2.70;;
79369;SDS011;68835;53.096;17.932;2023-04-25T15:38:48;6.00;;;3.20;;
79369;SDS011;68835;53.096;17.932;2023-04-25T15:41:15;7.50;;;4.60;;
79369;SDS011;68835;53.096;17.932;2023-04-25T15:43:43;9.40;;;5.60;;